METAR Data
IDs: Format: Raw Decoded Include TAF

Data at: 1345 UTC 07 Jul 2020

METAR for:KHWY (Warrenton/Fauquier A, VA, US)
Text:KHWY 071335Z AUTO 09003KT 10SM OVC012 25/21 A3007 RMK AO2 T02510214
Temperature: 25.1°C ( 77°F)
Dewpoint: 21.4°C ( 71°F) [RH = 80%]
Pressure (altimeter):30.07 inches Hg (1018.4 mb)
Winds:from the E (90 degrees) at 3 MPH (3 knots; 1.5 m/s)
Visibility:10 or more sm (16+ km)
Ceiling:1200 feet AGL
Clouds: overcast cloud deck at 1200 feet AGL
QC Flag:automated observation with no human augmentation